createdAt,value
2018-10-05T00:00:58.032Z,98918.81
2018-10-05T00:03:26.855Z,98917.10
2018-10-05T00:05:55.591Z,98920.59
2018-10-05T00:08:24.405Z,98921.35
2018-10-05T00:10:53.509Z,98921.35
2018-10-05T00:13:22.347Z,98919.64
2018-10-05T00:15:51.153Z,98913.07
2018-10-05T00:18:19.821Z,98911.73
2018-10-05T00:20:48.660Z,98907.29
2018-10-05T00:23:17.348Z,98901.59
2018-10-05T00:25:46.080Z,98897.70
2018-10-05T00:28:14.643Z,98897.45
2018-10-05T00:30:43.380Z,98891.42
2018-10-05T00:33:11.951Z,98892.05
2018-10-05T00:35:40.819Z,98891.70
2018-10-05T00:38:09.761Z,98889.84
2018-10-05T00:40:38.312Z,98887.62
2018-10-05T00:43:07.109Z,98888.68
2018-10-05T00:45:35.816Z,98883.95
2018-10-05T00:48:04.400Z,98882.55
2018-10-05T00:50:33.213Z,98884.25
2018-10-05T00:53:01.953Z,98880.08
2018-10-05T00:55:30.791Z,98883.30
2018-10-05T00:57:59.457Z,98887.59
2018-10-05T01:00:28.294Z,98880.92
2018-10-05T01:02:57.073Z,98884.38
2018-10-05T01:05:25.806Z,98886.42
2018-10-05T01:07:54.489Z,98881.31
2018-10-05T01:10:26.146Z,98878.13
2018-10-05T01:12:54.727Z,98881.00
2018-10-05T01:15:23.377Z,98884.30
2018-10-05T01:17:52.219Z,98882.37
2018-10-05T01:20:21.052Z,98885.59
2018-10-05T01:22:49.862Z,98883.70
2018-10-05T01:25:18.572Z,98885.48
2018-10-05T01:27:47.248Z,98878.92
2018-10-05T01:30:15.984Z,98877.73
2018-10-05T01:32:44.944Z,98879.38
2018-10-05T01:35:14.220Z,98871.91
2018-10-05T01:37:42.781Z,98870.55
2018-10-05T01:40:11.673Z,98870.88
2018-10-05T01:42:40.506Z,98869.63
2018-10-05T01:45:09.348Z,98871.14
2018-10-05T01:47:38.107Z,98858.30
2018-10-05T01:50:06.932Z,98859.58
2018-10-05T01:52:35.758Z,98857.79
2018-10-05T01:55:04.448Z,98857.86
2018-10-05T01:57:33.140Z,98852.38
2018-10-05T02:00:01.933Z,98856.08
2018-10-05T02:02:30.803Z,98850.34
2018-10-05T02:04:59.565Z,98860.82
2018-10-05T02:07:28.292Z,98850.00
2018-10-05T02:09:57.053Z,98859.19
2018-10-05T02:12:25.754Z,98854.34
2018-10-05T02:14:54.668Z,98841.19
2018-10-05T02:17:23.497Z,98842.05
2018-10-05T02:19:52.186Z,98834.28
2018-10-05T02:22:21.011Z,98837.95
2018-10-05T02:24:49.810Z,98832.25
2018-10-05T02:27:18.518Z,98827.35
2018-10-05T02:29:47.191Z,98830.84
2018-10-05T02:32:16.007Z,98833.92
2018-10-05T02:34:44.655Z,98838.05
2018-10-05T02:37:13.342Z,98832.00
2018-10-05T02:39:42.015Z,98833.52
2018-10-05T02:42:10.843Z,98831.28
2018-10-05T02:44:39.645Z,98829.26
2018-10-05T02:47:08.486Z,98825.88
2018-10-05T02:49:37.159Z,98819.22
2018-10-05T02:52:05.748Z,98818.86
2018-10-05T02:54:34.411Z,98817.56
2018-10-05T02:57:03.120Z,98818.73
2018-10-05T02:59:31.902Z,98813.13
2018-10-05T03:02:11.625Z,98815.16
2018-10-05T03:04:40.296Z,98809.27
2018-10-05T03:07:09.127Z,98806.80
2018-10-05T03:09:37.692Z,98807.01
2018-10-05T03:12:06.510Z,98807.19
2018-10-05T03:14:35.184Z,98815.31
2018-10-05T03:17:04.011Z,98816.20
2018-10-05T03:19:32.681Z,98812.70
2018-10-05T03:22:01.260Z,98812.55
2018-10-05T03:24:29.913Z,98810.28
2018-10-05T03:26:58.501Z,98814.77
2018-10-05T03:29:27.216Z,98812.61
2018-10-05T03:31:55.804Z,98814.42
2018-10-05T03:34:24.472Z,98815.34
2018-10-05T03:36:53.201Z,98814.39
2018-10-05T03:39:21.756Z,98812.31
2018-10-05T03:41:50.501Z,98814.27
2018-10-05T03:44:19.161Z,98810.91
2018-10-05T03:46:47.936Z,98807.28
2018-10-05T03:49:16.644Z,98801.02
2018-10-05T03:51:45.374Z,98790.91
2018-10-05T03:54:13.985Z,98791.55
2018-10-05T03:56:42.653Z,98782.45
2018-10-05T03:59:11.342Z,98785.60
2018-10-05T04:01:39.983Z,98782.94
2018-10-05T04:04:08.705Z,98788.72
2018-10-05T04:06:37.432Z,98791.17
2018-10-05T04:09:08.175Z,98795.38
2018-10-05T04:11:36.720Z,98793.21
2018-10-05T04:14:05.548Z,98791.56
2018-10-05T04:16:34.204Z,98792.22
2018-10-05T04:19:03.048Z,98788.59
2018-10-05T04:21:31.720Z,98800.50
2018-10-05T04:24:00.420Z,98795.61
2018-10-05T04:26:29.397Z,98804.05
2018-10-05T04:28:58.109Z,98799.06
2018-10-05T04:31:26.919Z,98798.41
2018-10-05T04:33:55.749Z,98807.35
2018-10-05T04:36:24.450Z,98803.28
2018-10-05T04:38:53.157Z,98806.40
2018-10-05T04:41:21.940Z,98802.13
2018-10-05T04:43:50.625Z,98802.38
2018-10-05T04:46:19.309Z,98797.20
2018-10-05T04:48:48.137Z,98796.73
2018-10-05T04:51:16.904Z,98795.73
2018-10-05T04:53:45.736Z,98793.27
2018-10-05T04:56:14.402Z,98798.52
2018-10-05T04:58:43.249Z,98799.13
2018-10-05T05:01:11.929Z,98801.30
2018-10-05T05:03:40.635Z,98795.05
2018-10-05T05:06:09.112Z,98801.18
2018-10-05T05:08:37.812Z,98798.34
2018-10-05T05:11:06.850Z,98803.45
2018-10-05T05:13:35.575Z,98807.97
2018-10-05T05:16:04.346Z,98800.59
2018-10-05T05:18:33.118Z,98803.22
2018-10-05T05:21:01.917Z,98807.88
2018-10-05T05:23:30.737Z,98810.03
2018-10-05T05:25:59.412Z,98805.23
2018-10-05T05:28:28.101Z,98809.95
2018-10-05T05:30:56.884Z,98815.91
2018-10-05T05:33:25.717Z,98813.95
2018-10-05T05:35:54.443Z,98819.42
2018-10-05T05:38:23.233Z,98819.06
2018-10-05T05:40:52.005Z,98816.02
2018-10-05T05:43:20.702Z,98819.09
2018-10-05T05:45:49.433Z,98814.23
2018-10-05T05:48:18.080Z,98818.30
2018-10-05T05:50:46.935Z,98827.87
2018-10-05T05:53:15.468Z,98840.16
2018-10-05T05:55:44.174Z,98839.45
2018-10-05T05:58:12.988Z,98840.50
2018-10-05T06:00:41.726Z,98835.03
2018-10-05T06:03:10.557Z,98843.03
2018-10-05T06:05:39.437Z,98839.56
2018-10-05T06:08:08.052Z,98842.34
2018-10-05T06:10:37.776Z,98842.23
2018-10-05T06:13:08.240Z,98845.32
2018-10-05T06:15:38.433Z,98837.37
2018-10-05T06:18:07.225Z,98842.99
2018-10-05T06:20:36.067Z,98839.92
2018-10-05T06:23:04.914Z,98837.02
2018-10-05T06:25:33.775Z,98824.16
2018-10-05T06:28:02.360Z,98827.31
2018-10-05T06:30:31.283Z,98828.09
2018-10-05T06:33:00.109Z,98831.90
2018-10-05T06:35:28.980Z,98839.35
2018-10-05T06:37:57.848Z,98832.61
2018-10-05T06:40:26.694Z,98831.51
2018-10-05T06:42:55.397Z,98828.08
2018-10-05T06:45:24.232Z,98831.16
2018-10-05T06:47:53.046Z,98838.53
2018-10-05T06:50:21.906Z,98833.97
2018-10-05T06:52:50.782Z,98834.52
2018-10-05T07:02:21.345Z,98852.44
2018-10-05T07:04:50.181Z,98853.00
2018-10-05T07:07:18.996Z,98848.28
2018-10-05T07:09:47.826Z,98837.42
2018-10-05T07:12:16.694Z,98836.81
2018-10-05T07:14:45.529Z,98835.72
2018-10-05T07:17:14.546Z,98840.54
2018-10-05T07:19:43.350Z,98837.21
2018-10-05T07:22:12.073Z,98838.95
2018-10-05T07:24:40.913Z,98833.58
2018-10-05T07:27:09.757Z,98834.33
2018-10-05T07:29:38.661Z,98832.34
2018-10-05T07:32:07.903Z,98830.61
2018-10-05T07:41:17.237Z,98826.48
2018-10-05T07:43:46.067Z,98823.98
2018-10-05T07:48:58.062Z,98822.43
2018-10-05T07:51:26.819Z,98827.03
2018-10-05T07:53:55.396Z,98824.60
2018-10-05T07:56:24.142Z,98823.91
2018-10-05T07:58:53.201Z,98823.90
2018-10-05T08:01:22.063Z,98825.05
2018-10-05T08:03:50.894Z,98822.28
2018-10-05T08:06:19.757Z,98823.30
2018-10-05T08:09:00.078Z,98823.67
2018-10-05T08:11:29.684Z,98834.30
2018-10-05T08:13:58.376Z,98836.31
2018-10-05T08:16:27.238Z,98822.67
2018-10-05T08:18:55.939Z,98817.11
2018-10-05T08:21:24.653Z,98818.31
2018-10-05T08:23:53.602Z,98810.20
2018-10-05T08:26:22.325Z,98811.75
2018-10-05T08:28:51.125Z,98815.42
2018-10-05T08:31:20.026Z,98809.27
2018-10-05T08:33:48.749Z,98807.42
2018-10-05T08:36:17.577Z,98810.09
2018-10-05T08:38:46.480Z,98807.53
2018-10-05T08:41:15.256Z,98809.48
2018-10-05T08:43:44.064Z,98805.94
2018-10-05T08:46:12.784Z,98805.92
2018-10-05T08:48:41.633Z,98801.21
2018-10-05T08:51:10.467Z,98799.77
2018-10-05T08:53:39.320Z,98803.31
2018-10-05T08:56:07.978Z,98797.98
2018-10-05T08:58:36.578Z,98786.92
2018-10-05T09:01:10.124Z,98786.04
2018-10-05T09:03:38.957Z,98776.13
2018-10-05T09:06:07.670Z,98775.42
2018-10-05T09:08:36.598Z,98769.98
2018-10-05T09:11:05.524Z,98766.39
2018-10-05T09:13:56.400Z,98767.05
2018-10-05T09:16:26.809Z,98758.87
2018-10-05T09:19:00.469Z,98750.80
2018-10-05T09:21:33.459Z,98752.23
2018-10-05T09:24:40.367Z,98749.14
2018-10-05T09:27:14.039Z,98747.59
2018-10-05T09:29:43.653Z,98736.94
2018-10-05T09:32:12.349Z,98742.27
2018-10-05T09:34:40.902Z,98737.41
2018-10-05T09:37:09.618Z,98731.58
2018-10-05T09:39:38.506Z,98730.08
2018-10-05T09:42:16.206Z,98728.97
2018-10-05T09:44:45.758Z,98732.94
2018-10-05T09:47:22.194Z,98733.45
2018-10-05T09:49:52.127Z,98728.09
2018-10-05T09:52:20.909Z,98718.45
2018-10-05T09:54:50.113Z,98718.72
2018-10-05T09:57:40.123Z,98709.62
2018-10-05T10:00:13.665Z,98714.32
2018-10-05T10:02:52.460Z,98706.85
2018-10-05T10:05:22.262Z,98699.13
2018-10-05T10:08:02.535Z,98701.03
2018-10-05T10:10:31.935Z,98702.20
2018-10-05T10:13:00.815Z,98698.19
2018-10-05T10:15:29.724Z,98692.84
2018-10-05T10:17:58.593Z,98689.66
2018-10-05T10:20:27.497Z,98681.34
2018-10-05T10:22:56.492Z,98675.83
2018-10-05T10:25:25.377Z,98678.12
2018-10-05T10:27:54.244Z,98669.41
2018-10-05T10:30:27.125Z,98668.47
2018-10-05T10:32:56.081Z,98658.44
2018-10-05T10:35:25.076Z,98654.77
2018-10-05T10:37:53.810Z,98648.38
2018-10-05T10:40:22.680Z,98643.89
2018-10-05T10:42:51.523Z,98640.44
2018-10-05T10:45:20.134Z,98639.52
2018-10-05T10:47:48.759Z,98641.50
2018-10-05T10:50:17.648Z,98633.42
2018-10-05T10:52:46.660Z,98632.90
2018-10-05T10:55:15.495Z,98622.64
2018-10-05T10:57:44.311Z,98621.26
2018-10-05T11:00:13.581Z,98620.83
2018-10-05T11:02:42.341Z,98617.42
2018-10-05T11:05:11.225Z,98615.48
2018-10-05T11:07:40.100Z,98607.39
2018-10-05T11:10:10.055Z,98603.31
2018-10-05T11:12:39.350Z,98604.36
2018-10-05T11:15:08.045Z,98599.94
2018-10-05T11:17:36.735Z,98590.19
2018-10-05T11:20:19.793Z,98597.50
2018-10-05T11:22:54.828Z,98593.31
2018-10-05T11:25:24.121Z,98589.03
2018-10-05T11:27:52.830Z,98579.33
2018-10-05T11:30:21.698Z,98569.84
2018-10-05T11:32:50.289Z,98572.84
2018-10-05T11:35:19.038Z,98565.00
2018-10-05T11:37:47.641Z,98565.59
2018-10-05T11:40:16.394Z,98556.59
2018-10-05T11:42:45.240Z,98554.14
2018-10-05T11:45:13.854Z,98542.73
2018-10-05T11:47:42.709Z,98547.12
2018-10-05T11:50:11.413Z,98549.12
2018-10-05T11:52:40.220Z,98536.99
2018-10-05T11:55:08.856Z,98530.35
2018-10-05T11:57:44.380Z,98530.26
2018-10-05T12:00:16.910Z,98527.77
2018-10-05T12:02:46.015Z,98517.93
2018-10-05T12:05:16.113Z,98520.69
2018-10-05T12:07:45.249Z,98515.57
2018-10-05T12:10:14.365Z,98509.22
2018-10-05T12:12:43.090Z,98503.51
2018-10-05T12:15:11.981Z,98498.08
2018-10-05T12:17:40.920Z,98501.46
2018-10-05T12:20:09.755Z,98493.80
2018-10-05T12:22:38.633Z,98486.53
2018-10-05T12:25:07.482Z,98489.23
2018-10-05T12:27:36.345Z,98480.52
2018-10-05T12:30:11.715Z,98478.47
2018-10-05T12:32:40.409Z,98475.50
2018-10-05T12:35:09.326Z,98478.15
2018-10-05T12:37:38.180Z,98473.06
2018-10-05T12:40:07.045Z,98463.70
2018-10-05T12:42:35.893Z,98462.59
2018-10-05T12:45:04.807Z,98459.02
2018-10-05T12:47:33.451Z,98447.69
2018-10-05T12:50:02.297Z,98458.98
2018-10-05T12:52:31.036Z,98452.90
2018-10-05T12:54:59.891Z,98452.63
2018-10-05T12:57:28.608Z,98449.47
2018-10-05T12:59:57.444Z,98438.95
2018-10-05T13:02:26.278Z,98442.77
2018-10-05T13:04:55.100Z,98431.97
2018-10-05T13:07:23.785Z,98424.50
2018-10-05T13:09:52.476Z,98423.17
2018-10-05T13:12:21.212Z,98409.83
2018-10-05T13:14:49.937Z,98401.97
2018-10-05T13:17:18.896Z,98410.90
2018-10-05T13:19:47.695Z,98405.47
2018-10-05T13:22:16.407Z,98406.80
2018-10-05T13:24:45.276Z,98406.25
2018-10-05T13:27:13.980Z,98401.86
2018-10-05T13:29:42.796Z,98395.89
2018-10-05T13:32:11.670Z,98399.80
2018-10-05T13:34:40.537Z,98395.37
2018-10-05T13:37:09.271Z,98398.07
2018-10-05T13:39:38.168Z,98407.72
2018-10-05T13:42:07.016Z,98400.39
2018-10-05T13:44:35.620Z,98404.47
2018-10-05T13:47:04.465Z,98399.03
2018-10-05T13:49:33.267Z,98404.86
2018-10-05T13:52:01.999Z,98400.09
2018-10-05T13:54:30.807Z,98391.52
2018-10-05T13:56:59.565Z,98394.50
2018-10-05T13:59:28.391Z,98386.13
2018-10-05T14:01:57.277Z,98377.55
2018-10-05T14:04:25.994Z,98382.75
2018-10-05T14:06:54.741Z,98379.60
2018-10-05T14:09:23.442Z,98380.73
2018-10-05T14:11:52.209Z,98372.30
2018-10-05T14:14:20.910Z,98370.61
2018-10-05T14:16:49.769Z,98372.72
2018-10-05T14:19:18.715Z,98372.94
2018-10-05T14:21:47.691Z,98370.52
2018-10-05T14:24:16.557Z,98359.69
2018-10-05T14:26:45.411Z,98355.92
2018-10-05T14:29:14.241Z,98348.00
2018-10-05T14:31:42.990Z,98343.86
2018-10-05T14:34:11.695Z,98337.30
2018-10-05T14:36:40.564Z,98339.70
2018-10-05T14:39:09.607Z,98328.91
2018-10-05T14:41:38.401Z,98330.18
2018-10-05T14:44:07.148Z,98321.12
2018-10-05T14:46:35.895Z,98322.13
2018-10-05T14:49:04.802Z,98318.31
2018-10-05T14:51:33.639Z,98321.88
2018-10-05T14:54:02.510Z,98312.89
2018-10-05T14:56:31.308Z,98313.05
2018-10-05T14:59:00.144Z,98301.78
2018-10-05T15:01:28.960Z,98304.85
2018-10-05T15:03:57.865Z,98301.98
2018-10-05T15:06:26.464Z,98297.72
2018-10-05T15:08:55.299Z,98296.91
2018-10-05T15:11:24.003Z,98297.55
2018-10-05T15:13:52.849Z,98284.47
2018-10-05T15:16:21.586Z,98287.19
2018-10-05T15:18:50.435Z,98282.05
2018-10-05T15:21:19.443Z,98275.22
2018-10-05T15:23:48.181Z,98271.78
2018-10-05T15:26:16.964Z,98264.81
2018-10-05T15:28:45.672Z,98269.42
2018-10-05T15:31:14.378Z,98268.28
2018-10-05T15:33:43.350Z,98263.41
2018-10-05T15:36:12.085Z,98260.23
2018-10-05T15:38:40.853Z,98256.66
2018-10-05T15:41:09.619Z,98252.69
2018-10-05T15:43:38.430Z,98255.66
2018-10-05T15:46:09.569Z,98249.15
2018-10-05T15:48:38.493Z,98247.64
2018-10-05T15:51:07.438Z,98239.14
2018-10-05T15:53:36.481Z,98229.08
2018-10-05T15:56:05.238Z,98227.33
2018-10-05T15:58:34.023Z,98227.70
2018-10-05T16:01:02.814Z,98230.16
2018-10-05T16:03:32.857Z,98232.47
2018-10-05T16:06:03.221Z,98244.53
2018-10-05T16:08:32.208Z,98243.13
2018-10-05T16:11:01.412Z,98239.05
2018-10-05T16:13:31.188Z,98244.41
2018-10-05T16:16:00.209Z,98237.19
2018-10-05T16:18:29.956Z,98238.19
2018-10-05T16:20:58.609Z,98241.42
2018-10-05T16:23:27.421Z,98232.23
2018-10-05T16:25:56.141Z,98237.43
2018-10-05T16:28:24.967Z,98238.47
2018-10-05T16:30:53.808Z,98234.22
2018-10-05T16:33:22.500Z,98234.36
2018-10-05T16:35:51.333Z,98232.73
2018-10-05T16:38:20.148Z,98237.55
2018-10-05T16:40:48.998Z,98247.33
2018-10-05T16:43:17.812Z,98244.77
2018-10-05T16:45:46.626Z,98245.52
2018-10-05T16:48:15.409Z,98247.16
2018-10-05T16:50:44.170Z,98240.19
2018-10-05T16:53:13.070Z,98238.05
2018-10-05T16:55:41.877Z,98246.48
2018-10-05T16:58:10.545Z,98240.02
2018-10-05T17:00:39.419Z,98238.14
2018-10-05T17:03:08.322Z,98234.92
2018-10-05T17:05:37.337Z,98235.95
2018-10-05T17:08:06.242Z,98235.38
2018-10-05T17:10:35.165Z,98229.92
2018-10-05T17:13:03.929Z,98236.38
2018-10-05T17:15:32.765Z,98240.41
2018-10-05T17:18:01.596Z,98234.95
2018-10-05T17:20:30.630Z,98233.23
2018-10-05T17:23:01.073Z,98234.80
2018-10-05T17:25:29.872Z,98237.36
2018-10-05T17:27:58.791Z,98234.58
2018-10-05T17:30:27.665Z,98230.73
2018-10-05T17:32:56.238Z,98228.97
2018-10-05T17:35:25.205Z,98232.34
2018-10-05T17:37:53.964Z,98231.71
2018-10-05T17:40:22.568Z,98231.11
2018-10-05T17:42:51.358Z,98229.91
2018-10-05T17:45:20.047Z,98233.89
2018-10-05T17:47:48.834Z,98227.30
2018-10-05T17:50:17.696Z,98223.73
2018-10-05T17:52:46.273Z,98232.48
2018-10-05T17:55:15.565Z,98242.40
2018-10-05T17:57:44.327Z,98235.23
2018-10-05T18:00:14.129Z,98234.09
2018-10-05T18:02:42.820Z,98231.13
2018-10-05T18:05:11.417Z,98232.03
2018-10-05T18:07:40.161Z,98227.94
2018-10-05T18:10:08.989Z,98229.48
2018-10-05T18:12:37.861Z,98224.25
2018-10-05T18:15:06.670Z,98225.23
2018-10-05T18:17:35.521Z,98222.47
2018-10-05T18:20:04.388Z,98212.39
2018-10-05T18:22:33.210Z,98211.80
2018-10-05T18:25:02.069Z,98214.80
2018-10-05T18:27:30.874Z,98221.14
2018-10-05T18:29:59.692Z,98216.72
2018-10-05T18:32:28.456Z,98221.84
2018-10-05T18:35:12.147Z,98217.48
2018-10-05T18:37:47.041Z,98213.91
2018-10-05T18:40:16.616Z,98205.00
2018-10-05T18:42:45.341Z,98200.59
2018-10-05T18:45:14.253Z,98202.05
2018-10-05T18:47:43.118Z,98203.31
2018-10-05T18:50:11.973Z,98201.48
2018-10-05T18:52:40.787Z,98203.30
2018-10-05T18:55:09.486Z,98198.31
2018-10-05T18:57:38.250Z,98202.00
2018-10-05T19:00:07.624Z,98209.37
2018-10-05T19:02:36.521Z,98204.52
2018-10-05T19:05:05.208Z,98199.06
2018-10-05T19:07:33.928Z,98200.16
2018-10-05T19:10:02.733Z,98200.02
2018-10-05T19:12:31.416Z,98193.20
2018-10-05T19:15:00.112Z,98198.41
2018-10-05T19:17:28.977Z,98202.33
2018-10-05T19:19:58.030Z,98192.80
2018-10-05T19:22:26.961Z,98191.19
2018-10-05T19:24:55.720Z,98183.06
2018-10-05T19:27:24.568Z,98189.09
2018-10-05T19:29:53.306Z,98185.01
2018-10-05T19:32:22.145Z,98190.36
2018-10-05T19:34:50.872Z,98191.50
2018-10-05T19:37:19.676Z,98190.54
2018-10-05T19:39:48.324Z,98192.75
2018-10-05T19:42:17.036Z,98186.30
2018-10-05T19:44:45.600Z,98191.70
2018-10-05T19:47:14.364Z,98192.17
2018-10-05T19:49:43.065Z,98187.98
2018-10-05T19:52:11.894Z,98187.37
2018-10-05T19:54:40.593Z,98182.91
2018-10-05T19:57:09.473Z,98190.62
2018-10-05T19:59:38.129Z,98185.13
2018-10-05T20:02:07.019Z,98191.81
2018-10-05T20:04:35.789Z,98193.03
2018-10-05T20:07:04.655Z,98186.17
2018-10-05T20:09:33.378Z,98188.02
2018-10-05T20:12:02.102Z,98186.06
2018-10-05T20:14:30.768Z,98184.77
2018-10-05T20:16:59.733Z,98176.52
2018-10-05T20:19:28.628Z,98178.68
2018-10-05T20:21:57.484Z,98183.09
2018-10-05T20:24:26.453Z,98178.68
2018-10-05T20:26:55.155Z,98183.72
2018-10-05T20:29:24.085Z,98179.00
2018-10-05T20:31:55.016Z,98181.64
2018-10-05T20:34:23.853Z,98181.00
2018-10-05T20:36:52.836Z,98175.75
2018-10-05T20:39:21.570Z,98171.15
2018-10-05T20:41:50.412Z,98175.00
2018-10-05T20:44:19.190Z,98179.00
2018-10-05T20:46:47.982Z,98172.56
2018-10-05T20:49:16.710Z,98170.87
2018-10-05T20:51:45.646Z,98178.18
2018-10-05T20:54:14.421Z,98176.25
2018-10-05T20:56:43.329Z,98174.64
2018-10-05T20:59:12.073Z,98174.45
2018-10-05T21:01:40.860Z,98171.26
2018-10-05T21:04:09.770Z,98176.84
2018-10-05T21:06:38.560Z,98170.91
2018-10-05T21:09:08.914Z,98168.23
2018-10-05T21:11:37.717Z,98175.30
2018-10-05T21:14:06.752Z,98173.72
2018-10-05T21:16:35.695Z,98169.13
2018-10-05T21:19:04.826Z,98164.73
2018-10-05T21:21:33.742Z,98170.50
2018-10-05T21:24:02.657Z,98166.69
2018-10-05T21:26:31.519Z,98162.36
2018-10-05T21:29:00.356Z,98157.08
2018-10-05T21:31:29.295Z,98158.93
2018-10-05T21:33:58.180Z,98159.16
2018-10-05T21:36:27.023Z,98156.38
2018-10-05T21:38:55.906Z,98156.38
2018-10-05T21:41:24.668Z,98158.56
2018-10-05T21:43:53.534Z,98157.08
2018-10-05T21:46:22.492Z,98156.84
2018-10-05T21:48:51.204Z,98160.72
2018-10-05T21:51:20.067Z,98163.03
2018-10-05T21:53:48.931Z,98162.72
2018-10-05T21:56:17.874Z,98161.56
2018-10-05T21:58:46.732Z,98154.89
2018-10-05T22:01:15.434Z,98159.33
2018-10-05T22:03:48.196Z,98154.09
2018-10-05T22:06:18.504Z,98151.06
2018-10-05T22:08:47.374Z,98148.84
2018-10-05T22:11:16.385Z,98148.13
2018-10-05T22:13:45.364Z,98148.04
2018-10-05T22:16:14.346Z,98148.73
2018-10-05T22:18:43.378Z,98155.17
2018-10-05T22:21:12.183Z,98159.78
2018-10-05T22:23:41.019Z,98155.86
2018-10-05T22:26:09.934Z,98155.43
2018-10-05T22:28:38.747Z,98157.13
2018-10-05T22:31:07.321Z,98155.65
2018-10-05T22:33:36.144Z,98158.31
2018-10-05T22:36:05.067Z,98154.31
2018-10-05T22:38:34.031Z,98149.28
2018-10-05T22:41:02.878Z,98145.30
2018-10-05T22:43:31.707Z,98154.52
2018-10-05T22:46:00.519Z,98153.11
2018-10-05T22:48:29.327Z,98154.89
2018-10-05T22:50:58.297Z,98151.63
2018-10-05T22:53:27.165Z,98156.89
2018-10-05T22:55:55.834Z,98155.58
2018-10-05T22:58:24.628Z,98162.73
2018-10-05T23:00:53.453Z,98163.73
2018-10-05T23:03:22.289Z,98156.94
2018-10-05T23:05:51.883Z,98155.89
2018-10-05T23:08:20.860Z,98149.59
2018-10-05T23:10:50.071Z,98152.72
2018-10-05T23:13:18.962Z,98147.39
2018-10-05T23:15:47.775Z,98145.55
2018-10-05T23:18:16.530Z,98147.91
2018-10-05T23:20:45.381Z,98141.69
2018-10-05T23:23:14.176Z,98142.29
2018-10-05T23:25:43.020Z,98145.59
2018-10-05T23:28:11.860Z,98136.49
2018-10-05T23:30:40.593Z,98131.86
2018-10-05T23:33:09.382Z,98132.81
2018-10-05T23:35:38.245Z,98134.05
2018-10-05T23:38:07.695Z,98128.57
2018-10-05T23:40:36.422Z,98124.80
2018-10-05T23:43:05.100Z,98125.02
2018-10-05T23:46:58.058Z,98125.84
2018-10-05T23:49:26.752Z,98119.48
2018-10-05T23:51:55.977Z,98127.56
2018-10-05T23:54:24.763Z,98117.80
2018-10-05T23:56:53.593Z,98112.27
2018-10-05T23:59:22.299Z,98113.80
